createdAt,value
2019-02-05T00:01:06.953Z,92.80
2019-02-05T00:03:50.887Z,92.80
2019-02-05T00:06:41.268Z,92.80
2019-02-05T00:09:24.642Z,92.90
2019-02-05T00:12:14.423Z,92.90
2019-02-05T00:14:57.018Z,92.70
2019-02-05T00:17:46.859Z,92.80
2019-02-05T00:20:19.152Z,93.10
2019-02-05T00:23:10.521Z,92.80
2019-02-05T00:26:06.339Z,92.60
2019-02-05T00:29:04.427Z,92.70
2019-02-05T00:31:54.532Z,92.70
2019-02-05T00:34:37.144Z,92.80
2019-02-05T00:37:26.995Z,92.90
2019-02-05T00:40:10.619Z,92.50
2019-02-05T00:43:00.692Z,92.20
2019-02-05T00:45:43.631Z,92.00
2019-02-05T00:48:33.692Z,92.10
2019-02-05T00:51:16.332Z,92.10
2019-02-05T00:54:25.462Z,91.70
2019-02-05T00:57:27.815Z,91.60
2019-02-05T00:59:58.881Z,91.50
2019-02-05T01:05:48.453Z,91.30
2019-02-05T01:08:52.172Z,91.00
2019-02-05T01:11:42.304Z,90.90
2019-02-05T01:14:26.398Z,90.30
2019-02-05T01:17:09.591Z,90.30
2019-02-05T01:19:59.379Z,90.20
2019-02-05T01:22:42.588Z,90.20
2019-02-05T01:25:32.610Z,88.70
2019-02-05T01:28:15.703Z,88.00
2019-02-05T01:31:05.604Z,88.40
2019-02-05T01:34:08.997Z,88.80
2019-02-05T01:36:59.015Z,88.90
2019-02-05T01:39:41.573Z,87.80
2019-02-05T01:42:31.350Z,87.90
2019-02-05T01:45:35.325Z,88.20
2019-02-05T01:48:25.108Z,88.30
2019-02-05T01:51:08.064Z,87.20
2019-02-05T01:53:58.103Z,86.20
2019-02-05T01:56:41.137Z,86.40
2019-02-05T01:59:30.827Z,87.10
2019-02-05T02:02:13.565Z,86.40
2019-02-05T02:05:03.695Z,85.60
2019-02-05T02:07:46.379Z,85.50
2019-02-05T02:10:36.816Z,85.10
2019-02-05T02:13:19.356Z,83.90
2019-02-05T02:16:01.993Z,84.80
2019-02-05T02:18:52.127Z,84.40
2019-02-05T02:21:36.826Z,84.90
2019-02-05T02:24:26.869Z,85.80
2019-02-05T02:27:09.798Z,84.00
2019-02-05T02:29:59.609Z,84.30
2019-02-05T02:32:42.683Z,84.70
2019-02-05T02:35:32.480Z,86.40
2019-02-05T02:38:14.783Z,85.40
2019-02-05T02:41:23.647Z,85.00
2019-02-05T02:44:07.078Z,84.90
2019-02-05T02:46:56.852Z,83.40
2019-02-05T02:49:39.229Z,82.10
2019-02-05T02:52:29.007Z,81.20
2019-02-05T02:55:11.594Z,81.50
2019-02-05T02:58:01.652Z,82.10
2019-02-05T03:01:01.739Z,82.10
2019-02-05T03:03:45.135Z,81.10
2019-02-05T03:06:35.706Z,82.90
2019-02-05T03:09:18.917Z,82.10
2019-02-05T03:12:09.036Z,82.10
2019-02-05T03:14:51.869Z,82.00
2019-02-05T03:17:41.647Z,82.00
2019-02-05T03:20:22.306Z,82.10
2019-02-05T03:23:12.458Z,81.40
2019-02-05T03:25:55.154Z,83.30
2019-02-05T03:28:44.905Z,84.80
2019-02-05T03:31:27.238Z,85.00
2019-02-05T03:34:17.281Z,84.60
2019-02-05T03:37:21.271Z,84.90
2019-02-05T03:40:32.076Z,83.70
2019-02-05T03:43:14.821Z,84.20
2019-02-05T03:46:05.136Z,84.10
2019-02-05T03:48:49.137Z,84.20
2019-02-05T03:51:59.592Z,82.60
2019-02-05T03:55:09.094Z,83.30
2019-02-05T03:58:40.980Z,82.10
2019-02-05T04:01:25.634Z,82.70
2019-02-05T04:04:54.227Z,82.10
2019-02-05T04:07:41.369Z,82.90
2019-02-05T04:10:45.565Z,81.50
2019-02-05T04:13:56.446Z,82.30
2019-02-05T04:16:44.061Z,82.80
2019-02-05T04:19:38.993Z,82.20
2019-02-05T04:22:49.831Z,82.10
2019-02-05T04:25:36.542Z,82.20
2019-02-05T04:28:49.264Z,81.10
2019-02-05T04:31:36.499Z,80.20
2019-02-05T04:35:06.710Z,82.30
2019-02-05T04:37:51.514Z,81.30
2019-02-05T04:41:20.123Z,79.70
2019-02-05T04:44:22.334Z,81.40
2019-02-05T04:47:50.911Z,81.20
2019-02-05T04:50:37.601Z,80.70
2019-02-05T04:54:07.820Z,80.60
2019-02-05T04:56:52.556Z,81.10
2019-02-05T05:00:03.714Z,79.80
2019-02-05T05:02:48.340Z,79.00
2019-02-05T05:06:17.238Z,79.70
2019-02-05T05:09:19.645Z,81.10
2019-02-05T05:12:09.439Z,83.20
2019-02-05T05:14:50.111Z,85.30
2019-02-05T05:17:40.220Z,90.10
2019-02-05T05:20:23.569Z,91.20
2019-02-05T05:23:13.423Z,92.50
2019-02-05T05:25:56.142Z,93.30
2019-02-05T05:28:45.924Z,93.90
2019-02-05T05:31:28.800Z,93.80
2019-02-05T05:34:18.556Z,93.80
2019-02-05T05:37:07.453Z,94.00
2019-02-05T05:39:58.873Z,94.30
2019-02-05T05:43:02.245Z,94.30
2019-02-05T05:45:52.336Z,94.30
2019-02-05T05:48:22.700Z,94.30
2019-02-05T05:51:12.447Z,94.30
2019-02-05T05:53:55.327Z,94.30
2019-02-05T05:56:45.076Z,94.30
2019-02-05T05:59:28.041Z,93.40
2019-02-05T06:05:40.852Z,92.80
2019-02-05T06:08:30.705Z,92.30
2019-02-05T06:11:32.702Z,92.10
2019-02-05T06:14:22.839Z,92.00
2019-02-05T06:17:05.107Z,91.20
2019-02-05T06:19:55.162Z,91.00
2019-02-05T06:22:37.623Z,90.50
2019-02-05T06:25:27.372Z,88.80
2019-02-05T06:28:10.058Z,88.80
2019-02-05T06:30:59.835Z,87.70
2019-02-05T06:33:42.985Z,87.40
2019-02-05T06:36:32.717Z,88.10
2019-02-05T06:39:36.744Z,88.50
2019-02-05T06:45:53.774Z,85.30
2019-02-05T06:48:43.872Z,85.70
2019-02-05T06:51:33.649Z,86.00
2019-02-05T06:54:37.342Z,87.90
2019-02-05T06:57:27.472Z,85.60
2019-02-05T07:00:14.384Z,83.70
2019-02-05T07:02:55.357Z,83.10
2019-02-05T07:05:45.368Z,82.70
2019-02-05T07:08:29.503Z,83.20
2019-02-05T07:14:20.968Z,81.60
2019-02-05T07:17:11.119Z,81.10
2019-02-05T07:19:54.295Z,80.20
2019-02-05T07:22:44.353Z,78.30
2019-02-05T07:25:27.070Z,79.90
2019-02-05T07:28:17.155Z,79.20
2019-02-05T07:30:59.495Z,79.80
2019-02-05T07:33:49.266Z,78.00
2019-02-05T07:36:32.706Z,79.20
2019-02-05T07:39:22.471Z,78.50
2019-02-05T07:42:05.073Z,79.40
2019-02-05T07:44:55.209Z,76.90
2019-02-05T07:47:37.618Z,76.90
2019-02-05T07:53:56.357Z,75.50
2019-02-05T07:56:39.538Z,74.30
2019-02-05T07:59:29.336Z,74.30
2019-02-05T08:02:12.322Z,74.20
2019-02-05T08:05:02.264Z,75.60
2019-02-05T08:07:44.975Z,75.10
2019-02-05T08:10:35.410Z,74.40
2019-02-05T08:13:37.237Z,75.10
2019-02-05T08:16:27.021Z,75.50
2019-02-05T08:19:10.109Z,74.00
2019-02-05T08:25:10.406Z,73.90
2019-02-05T08:28:00.531Z,72.80
2019-02-05T08:30:44.386Z,72.90
2019-02-05T08:33:34.473Z,72.30
2019-02-05T08:36:15.207Z,71.60
2019-02-05T08:38:58.291Z,72.10
2019-02-05T08:41:48.069Z,70.30
2019-02-05T08:44:52.103Z,70.80
2019-02-05T08:47:42.450Z,71.10
2019-02-05T08:50:28.268Z,71.90
2019-02-05T08:53:18.100Z,70.80
2019-02-05T08:56:22.226Z,69.30
2019-02-05T09:02:39.823Z,70.50
2019-02-05T09:05:30.181Z,70.00
2019-02-05T09:08:20.049Z,70.00
2019-02-05T09:11:02.296Z,70.50
2019-02-05T09:13:52.085Z,70.50
2019-02-05T09:16:34.451Z,70.20
2019-02-05T09:19:24.593Z,70.10
2019-02-05T09:22:07.483Z,70.30
2019-02-05T09:24:57.612Z,69.50
2019-02-05T09:27:42.839Z,69.50
2019-02-05T09:30:52.277Z,69.00
2019-02-05T09:33:35.314Z,70.30
2019-02-05T09:36:25.724Z,70.60
2019-02-05T09:39:08.332Z,69.50
2019-02-05T09:41:58.132Z,70.50
2019-02-05T09:45:02.718Z,71.00
2019-02-05T09:48:11.867Z,71.60
2019-02-05T09:51:14.344Z,70.90
2019-02-05T09:54:23.414Z,71.20
2019-02-05T09:57:06.258Z,71.00
2019-02-05T09:59:56.336Z,72.00
2019-02-05T10:02:38.681Z,72.90
2019-02-05T10:05:49.508Z,71.60
2019-02-05T10:08:30.472Z,70.60
2019-02-05T10:11:13.189Z,70.00
2019-02-05T10:14:03.216Z,71.60
2019-02-05T10:16:48.118Z,70.10
2019-02-05T10:23:04.659Z,68.90
2019-02-05T10:25:54.437Z,67.90
2019-02-05T10:28:58.079Z,69.30
2019-02-05T10:31:48.166Z,69.60
2019-02-05T10:34:34.418Z,68.30
2019-02-05T10:40:51.084Z,67.80
2019-02-05T10:43:41.238Z,69.30
2019-02-05T10:46:31.034Z,70.00
2019-02-05T10:49:15.805Z,70.90
2019-02-05T10:52:06.247Z,70.90
2019-02-05T10:54:49.064Z,70.60
2019-02-05T10:57:39.411Z,71.70
2019-02-05T11:00:26.085Z,71.70
2019-02-05T11:03:16.116Z,73.80
2019-02-05T11:06:01.041Z,72.80
2019-02-05T11:08:51.111Z,72.70
2019-02-05T11:11:34.367Z,73.40
2019-02-05T11:14:24.420Z,75.50
2019-02-05T11:17:07.307Z,75.40
2019-02-05T11:19:57.122Z,75.70
2019-02-05T11:22:40.289Z,75.70
2019-02-05T11:25:30.365Z,75.70
2019-02-05T11:28:15.288Z,76.10
2019-02-05T11:31:05.430Z,75.90
2019-02-05T11:33:50.230Z,75.90
2019-02-05T11:36:40.125Z,75.90
2019-02-05T11:39:23.145Z,75.90
2019-02-05T11:42:06.612Z,77.30
2019-02-05T11:44:56.407Z,77.30
2019-02-05T11:47:41.118Z,79.90
2019-02-05T11:50:52.178Z,78.60
2019-02-05T11:53:35.188Z,77.90
2019-02-05T11:56:25.290Z,78.50
2019-02-05T11:59:06.079Z,77.20
2019-02-05T12:01:56.151Z,77.20
2019-02-05T12:04:59.724Z,76.20
2019-02-05T12:07:50.946Z,75.80
2019-02-05T12:10:54.527Z,76.20
2019-02-05T12:13:44.355Z,76.30
2019-02-05T12:16:27.586Z,77.10
2019-02-05T12:22:19.727Z,79.00
2019-02-05T12:25:31.160Z,79.30
2019-02-05T12:28:13.950Z,78.80
2019-02-05T12:31:03.741Z,79.70
2019-02-05T12:33:46.282Z,79.50
2019-02-05T12:36:36.050Z,80.00
2019-02-05T12:39:19.284Z,80.90
2019-02-05T12:42:09.342Z,81.00
2019-02-05T12:44:53.155Z,80.00
2019-02-05T12:51:09.267Z,82.00
2019-02-05T12:53:59.056Z,80.90
2019-02-05T12:56:48.857Z,81.10
2019-02-05T12:59:31.312Z,80.30
2019-02-05T13:02:21.506Z,79.90
2019-02-05T13:05:23.201Z,80.60
2019-02-05T13:08:12.982Z,80.40
2019-02-05T13:10:57.244Z,80.70
2019-02-05T13:14:06.692Z,80.00
2019-02-05T13:16:49.329Z,79.10
2019-02-05T13:19:39.383Z,79.00
2019-02-05T13:22:41.114Z,78.90
2019-02-05T13:25:52.217Z,78.90
2019-02-05T13:28:35.447Z,79.60
2019-02-05T13:31:25.791Z,80.30
2019-02-05T13:34:08.559Z,81.00
2019-02-05T13:36:58.457Z,81.20
2019-02-05T13:39:41.015Z,83.00
2019-02-05T13:42:30.848Z,83.30
2019-02-05T13:45:13.768Z,83.40
2019-02-05T13:51:32.323Z,81.80
2019-02-05T13:54:22.388Z,81.20
2019-02-05T13:57:05.205Z,81.40
2019-02-05T13:59:55.075Z,81.70
2019-02-05T14:02:38.058Z,82.40
2019-02-05T14:05:29.454Z,82.80
2019-02-05T14:08:12.213Z,83.90
2019-02-05T14:11:02.376Z,84.40
2019-02-05T14:14:06.062Z,84.80
2019-02-05T14:16:55.850Z,85.40
2019-02-05T14:19:38.639Z,86.50
2019-02-05T14:22:28.399Z,86.80
2019-02-05T14:25:30.476Z,87.10
2019-02-05T14:28:20.262Z,86.40
2019-02-05T14:31:05.102Z,86.60
2019-02-05T14:33:54.882Z,86.90
2019-02-05T14:36:37.728Z,86.80
2019-02-05T14:39:27.520Z,86.10
2019-02-05T14:42:09.901Z,85.50
2019-02-05T14:44:59.691Z,86.10
2019-02-05T14:47:42.535Z,86.90
2019-02-05T14:50:53.616Z,87.50
2019-02-05T14:53:36.770Z,88.60
2019-02-05T14:56:26.967Z,87.40
2019-02-05T14:59:09.517Z,87.40
2019-02-05T15:01:59.298Z,88.60
2019-02-05T15:04:40.285Z,89.80
2019-02-05T15:07:11.369Z,89.20
2019-02-05T15:09:55.317Z,89.00
2019-02-05T15:12:45.413Z,89.00
2019-02-05T15:15:29.677Z,89.90
2019-02-05T15:18:19.826Z,90.20
2019-02-05T15:21:02.739Z,90.10
2019-02-05T15:27:19.766Z,90.50
2019-02-05T15:30:31.314Z,90.70
2019-02-05T15:36:37.928Z,90.70
2019-02-05T15:39:20.853Z,91.10
2019-02-05T15:42:10.631Z,91.00
2019-02-05T15:44:53.893Z,90.90
2019-02-05T15:47:43.710Z,91.30
2019-02-05T15:50:26.110Z,91.10
2019-02-05T15:53:35.311Z,91.30
2019-02-05T15:56:18.133Z,91.90
2019-02-05T15:59:07.915Z,91.60
2019-02-05T16:01:50.964Z,91.40
2019-02-05T16:04:59.841Z,91.20
2019-02-05T16:07:42.355Z,91.30
2019-02-05T16:10:32.513Z,91.40
2019-02-05T16:13:36.704Z,91.50
2019-02-05T16:16:26.527Z,91.50
2019-02-05T16:19:29.904Z,91.30
2019-02-05T16:22:12.696Z,91.50
2019-02-05T16:28:29.891Z,91.90
2019-02-05T16:31:20.004Z,91.90
2019-02-05T16:34:02.515Z,91.90
2019-02-05T16:36:52.581Z,91.90
2019-02-05T16:39:35.820Z,91.90
2019-02-05T16:42:25.613Z,91.90
2019-02-05T16:45:09.553Z,91.90
2019-02-05T16:47:59.635Z,91.90
2019-02-05T16:50:47.791Z,91.90
2019-02-05T16:53:39.710Z,91.90
2019-02-05T16:56:22.284Z,91.90
2019-02-05T16:59:12.086Z,91.90
2019-02-05T17:01:57.118Z,91.90
2019-02-05T17:04:46.775Z,91.90
2019-02-05T17:07:29.400Z,92.50
2019-02-05T17:10:40.164Z,92.30
2019-02-05T17:13:23.074Z,92.50
2019-02-05T17:16:12.859Z,92.20
2019-02-05T17:18:55.400Z,92.30
2019-02-05T17:21:38.412Z,92.00
2019-02-05T17:24:28.612Z,92.20
2019-02-05T17:27:11.612Z,92.50
2019-02-05T17:30:01.413Z,92.40
2019-02-05T17:32:42.066Z,92.40
2019-02-05T17:35:24.343Z,92.40
2019-02-05T17:38:14.464Z,92.40
2019-02-05T17:40:57.476Z,92.40
2019-02-05T17:43:50.226Z,92.30
2019-02-05T17:46:50.894Z,92.30
2019-02-05T17:49:40.652Z,92.60
2019-02-05T17:52:23.485Z,92.20
2019-02-05T17:55:34.306Z,91.90
2019-02-05T17:58:16.761Z,92.20
2019-02-05T18:04:28.918Z,92.40
2019-02-05T18:07:18.998Z,92.30
2019-02-05T18:10:30.183Z,91.90
2019-02-05T18:13:14.394Z,91.90
2019-02-05T18:16:25.250Z,92.40
2019-02-05T18:19:08.325Z,92.40
2019-02-05T18:22:17.331Z,92.40
2019-02-05T18:25:00.471Z,92.30
2019-02-05T18:27:51.214Z,92.60
2019-02-05T18:30:36.897Z,92.60
2019-02-05T18:33:26.978Z,92.60
2019-02-05T18:36:11.720Z,92.70
2019-02-05T18:39:21.167Z,92.60
2019-02-05T18:42:03.761Z,93.00
2019-02-05T18:45:12.659Z,92.90
2019-02-05T18:47:56.178Z,93.10
2019-02-05T18:50:46.685Z,93.10
2019-02-05T18:53:31.945Z,93.20
2019-02-05T18:59:16.767Z,92.80
2019-02-05T19:01:47.339Z,92.60
2019-02-05T19:04:18.210Z,92.90
2019-02-05T19:06:48.835Z,93.20
2019-02-05T19:09:19.242Z,93.40
2019-02-05T19:11:49.984Z,93.70
2019-02-05T19:14:23.200Z,93.90
2019-02-05T19:16:53.021Z,93.90
2019-02-05T19:19:23.376Z,93.90
2019-02-05T19:21:53.736Z,93.70
2019-02-05T19:24:31.482Z,93.90
2019-02-05T19:27:01.831Z,94.30
2019-02-05T19:29:32.730Z,94.30
2019-02-05T19:32:03.442Z,94.40
2019-02-05T19:34:33.805Z,94.70
2019-02-05T19:37:04.155Z,94.80
2019-02-05T19:39:34.523Z,95.00
2019-02-05T19:42:05.152Z,95.00
2019-02-05T19:44:37.264Z,94.90
2019-02-05T19:47:07.992Z,94.80
2019-02-05T19:49:38.391Z,94.90
2019-02-05T19:52:09.350Z,95.30
2019-02-05T19:54:39.713Z,95.50
2019-02-05T19:57:10.695Z,95.50
2019-02-05T19:59:41.698Z,95.50
2019-02-05T20:02:12.594Z,95.50
2019-02-05T20:04:43.354Z,95.50
2019-02-05T20:07:14.292Z,95.50
2019-02-05T20:09:44.647Z,95.50
2019-02-05T20:12:15.005Z,95.50
2019-02-05T20:14:45.965Z,95.70
2019-02-05T20:17:16.749Z,95.90
2019-02-05T20:19:47.079Z,95.90
2019-02-05T20:22:17.429Z,96.00
2019-02-05T20:24:47.805Z,95.80
2019-02-05T20:27:18.420Z,95.50
2019-02-05T20:29:49.384Z,95.50
2019-02-05T20:32:19.958Z,95.50
2019-02-05T20:34:50.584Z,95.50
2019-02-05T20:37:20.918Z,95.50
2019-02-05T20:39:51.653Z,95.50
2019-02-05T20:42:22.029Z,95.50
2019-02-05T20:44:52.563Z,95.50
2019-02-05T20:47:23.295Z,95.50
2019-02-05T20:49:53.647Z,95.50
2019-02-05T20:52:24.127Z,95.50
2019-02-05T20:54:54.728Z,95.50
2019-02-05T20:57:25.094Z,95.50
2019-02-05T20:59:55.791Z,95.50
2019-02-05T21:02:26.905Z,95.40
2019-02-05T21:04:57.495Z,95.40
2019-02-05T21:07:27.828Z,95.50
2019-02-05T21:09:58.586Z,95.50
2019-02-05T21:12:29.281Z,95.50
2019-02-05T21:14:59.887Z,95.40
2019-02-05T21:17:30.810Z,95.50
2019-02-05T21:20:01.621Z,95.40
2019-02-05T21:22:32.052Z,95.50
2019-02-05T21:25:02.726Z,95.50
2019-02-05T21:27:33.616Z,95.20
2019-02-05T21:30:09.960Z,95.10
2019-02-05T21:32:40.313Z,94.90
2019-02-05T21:35:11.063Z,94.90
2019-02-05T21:37:41.463Z,94.70
2019-02-05T21:40:25.770Z,94.60
2019-02-05T21:42:56.178Z,94.40
2019-02-05T21:45:31.430Z,94.20
2019-02-05T21:48:01.760Z,94.40
2019-02-05T21:50:32.409Z,94.10
2019-02-05T21:53:03.574Z,94.20
2019-02-05T21:55:34.364Z,94.00
2019-02-05T21:58:05.346Z,93.70
2019-02-05T22:00:38.704Z,93.70
2019-02-05T22:03:09.046Z,93.90
2019-02-05T22:05:39.403Z,93.80
2019-02-05T22:08:10.058Z,94.00
2019-02-05T22:10:40.543Z,94.00
2019-02-05T22:13:11.246Z,94.20
2019-02-05T22:15:41.601Z,94.10
2019-02-05T22:18:12.431Z,94.00
2019-02-05T22:20:42.831Z,93.80
2019-02-05T22:23:14.234Z,93.90
2019-02-05T22:25:45.145Z,94.20
2019-02-05T22:28:16.397Z,94.00
2019-02-05T22:30:47.106Z,93.80
2019-02-05T22:33:17.439Z,93.80
2019-02-05T22:35:47.784Z,94.00
2019-02-05T22:38:18.161Z,93.90
2019-02-05T22:40:48.527Z,93.90
2019-02-05T22:43:19.017Z,93.70
2019-02-05T22:45:49.349Z,93.50
2019-02-05T22:48:19.692Z,93.40
2019-02-05T22:50:50.380Z,93.10
2019-02-05T22:53:21.042Z,92.90
2019-02-05T22:55:51.721Z,92.90
2019-02-05T22:58:22.508Z,93.10
2019-02-05T23:01:18.370Z,93.50
2019-02-05T23:03:54.996Z,93.40
2019-02-05T23:06:48.043Z,93.20
2019-02-05T23:09:35.748Z,93.30
2019-02-05T23:12:22.791Z,93.20
2019-02-05T23:15:01.534Z,93.10
2019-02-05T23:17:32.154Z,93.20
2019-02-05T23:20:02.799Z,93.30
2019-02-05T23:22:33.158Z,93.40
2019-02-05T23:25:04.593Z,93.00
2019-02-05T23:27:35.220Z,93.30
2019-02-05T23:30:16.507Z,93.40
2019-02-05T23:32:46.858Z,93.50
2019-02-05T23:35:17.229Z,93.30
2019-02-05T23:37:47.889Z,93.50
2019-02-05T23:40:18.495Z,93.20
2019-02-05T23:42:48.831Z,93.30
2019-02-05T23:45:19.498Z,93.50
2019-02-05T23:47:50.107Z,93.40
2019-02-05T23:50:20.437Z,93.40
2019-02-05T23:52:51.177Z,93.30
2019-02-05T23:55:22.140Z,93.10
2019-02-05T23:57:52.753Z,92.60
